Time;durP1;ratioP1;P1;durP2;ratioP2;P2;SDS_P1;SDS_P2;PMS_P1;PMS_P2;Temp;Humidity;BMP_temperature;BMP_pressure;BME280_temperature;BME280_humidity;BME280_pressure;Samples;Min_cycle;Max_cycle;Signal;HPM_P1;HPM_P2
2021/05/16 00:01:31;;;;;;;0.80;0.80;;;;;;;11.85;72.52;94698.59;4997569;28;20878;-85
2021/05/16 00:03:58;;;;;;;0.70;0.70;;;;;;;11.85;71.78;94694.22;4994977;28;20219;-85
2021/05/16 00:06:26;;;;;;;0.57;0.57;;;;;;;11.86;72.57;94698.38;4994452;28;20203;-85
2021/05/16 00:08:52;;;;;;;1.70;0.50;;;;;;;11.77;71.87;94700.38;4993685;28;20219;-85
2021/05/16 00:11:19;;;;;;;0.60;0.60;;;;;;;11.73;72.18;94693.25;4994081;28;20297;-85
2021/05/16 00:13:44;;;;;;;0.67;0.67;;;;;;;11.66;72.04;94700.22;4994527;28;20223;-87
2021/05/16 00:16:10;;;;;;;1.80;0.80;;;;;;;11.62;71.88;94699.03;4995468;28;20219;-86
2021/05/16 00:18:36;;;;;;;0.60;0.60;;;;;;;11.51;72.24;94703.06;4998643;28;20228;-86
2021/05/16 00:21:03;;;;;;;0.60;0.60;;;;;;;11.47;72.26;94704.44;4999489;28;20671;-85
2021/05/16 00:23:29;;;;;;;0.67;0.67;;;;;;;11.48;72.40;94707.81;4998719;28;20207;-86
2021/05/16 00:25:56;;;;;;;0.60;0.60;;;;;;;11.48;72.10;94705.25;4997742;28;20227;-87
2021/05/16 00:28:23;;;;;;;0.60;0.60;;;;;;;11.49;72.36;94709.41;4998304;28;20227;-86
2021/05/16 00:30:51;;;;;;;0.60;0.60;;;;;;;11.53;72.14;94715.75;4999059;28;20199;-85
2021/05/16 00:33:18;;;;;;;0.50;0.50;;;;;;;11.55;71.85;94711.16;4998793;28;20249;-85
2021/05/16 00:35:44;;;;;;;0.80;0.70;;;;;;;11.52;71.49;94712.38;4997985;28;20635;-85
2021/05/16 00:38:10;;;;;;;0.53;0.50;;;;;;;11.56;71.51;94716.09;4998132;28;20215;-86
2021/05/16 00:40:36;;;;;;;0.50;0.50;;;;;;;11.48;71.04;94711.19;4998944;28;20207;-86
2021/05/16 00:43:03;;;;;;;0.77;0.60;;;;;;;11.43;71.83;94714.38;4998941;28;20215;-87
2021/05/16 00:45:30;;;;;;;0.50;0.50;;;;;;;11.40;71.41;94716.56;4998905;28;20744;-85
2021/05/16 00:47:57;;;;;;;0.70;0.70;;;;;;;11.41;70.82;94708.63;4998052;28;20208;-85
2021/05/16 00:50:26;;;;;;;0.97;0.73;;;;;;;11.43;70.55;94709.22;4997854;28;20581;-86
2021/05/16 00:52:52;;;;;;;1.20;0.70;;;;;;;11.45;70.45;94711.59;4997863;28;20230;-86
2021/05/16 00:55:19;;;;;;;1.23;0.60;;;;;;;11.36;71.18;94707.63;4998148;28;20199;-85
2021/05/16 00:57:46;;;;;;;0.77;0.60;;;;;;;11.28;70.94;94706.09;4998393;28;20207;-86
2021/05/16 01:00:15;;;;;;;0.60;0.60;;;;;;;11.28;70.57;94708.66;4999368;28;20755;-86
2021/05/16 01:02:42;;;;;;;1.00;0.60;;;;;;;11.32;70.86;94703.91;4999842;28;20195;-86
2021/05/16 01:05:10;;;;;;;0.50;0.50;;;;;;;11.20;71.23;94705.50;4999494;28;20199;-86
2021/05/16 01:07:38;;;;;;;0.60;0.60;;;;;;;11.13;70.71;94704.75;4998569;28;20204;-85
2021/05/16 01:10:05;;;;;;;1.90;0.70;;;;;;;11.15;71.15;94711.28;4998769;28;20290;-84
2021/05/16 01:12:38;;;;;;;0.67;0.60;;;;;;;11.12;70.68;94714.25;4997443;28;20203;-85
2021/05/16 01:15:06;;;;;;;2.03;0.60;;;;;;;11.12;70.84;94709.09;4997607;28;20294;-86
2021/05/16 01:17:32;;;;;;;0.77;0.60;;;;;;;10.98;70.31;94708.31;4997543;28;20196;-85
2021/05/16 01:19:59;;;;;;;1.57;0.70;;;;;;;11.15;70.04;94711.28;4997332;28;20310;-85
2021/05/16 01:22:26;;;;;;;1.57;0.70;;;;;;;11.21;69.95;94712.25;4997203;28;20199;-85
2021/05/16 01:24:52;;;;;;;1.03;0.70;;;;;;;11.20;69.91;94716.59;4997475;28;20274;-86
2021/05/16 01:27:19;;;;;;;0.87;0.60;;;;;;;11.16;70.21;94709.50;4997650;28;20211;-85
2021/05/16 01:29:45;;;;;;;1.67;0.83;;;;;;;11.22;69.57;94714.63;4996530;28;20216;-86
2021/05/16 01:32:11;;;;;;;1.50;0.73;;;;;;;11.18;70.20;94710.84;4996826;28;20207;-85
2021/05/16 01:34:39;;;;;;;0.67;0.60;;;;;;;11.22;69.84;94708.69;4996125;28;20362;-86
2021/05/16 01:37:05;;;;;;;1.13;0.73;;;;;;;11.23;70.59;94705.91;4995931;28;20196;-85
2021/05/16 01:39:32;;;;;;;1.33;0.70;;;;;;;11.23;69.75;94718.00;4996061;28;20574;-86
2021/05/16 01:41:58;;;;;;;1.37;0.80;;;;;;;11.20;68.85;94706.28;4995511;28;20204;-85
2021/05/16 01:44:25;;;;;;;1.33;0.70;;;;;;;11.25;68.98;94711.66;4996151;28;20683;-85
2021/05/16 01:46:51;;;;;;;1.60;0.70;;;;;;;11.18;69.43;94710.84;4995171;28;20208;-85
2021/05/16 01:49:18;;;;;;;0.60;0.60;;;;;;;11.16;69.83;94707.69;4995378;28;20281;-83
2021/05/16 01:51:44;;;;;;;0.63;0.60;;;;;;;11.29;69.03;94710.25;4995909;28;20214;-84
2021/05/16 01:54:11;;;;;;;1.80;0.63;;;;;;;11.27;68.89;94709.66;4994513;28;20223;-85
2021/05/16 01:56:38;;;;;;;0.87;0.80;;;;;;;11.25;69.14;94706.50;4995184;28;20210;-85
2021/05/16 01:59:04;;;;;;;0.83;0.63;;;;;;;11.23;69.52;94712.84;4994976;28;20223;-85
2021/05/16 02:01:32;;;;;;;0.70;0.60;;;;;;;11.23;70.16;94705.91;4994089;28;20196;-86
2021/05/16 02:03:58;;;;;;;0.90;0.70;;;;;;;11.31;68.89;94704.91;4994898;28;20207;-84
2021/05/16 02:06:25;;;;;;;1.10;0.70;;;;;;;11.33;68.12;94697.75;4995306;28;20258;-84
2021/05/16 02:08:51;;;;;;;0.83;0.67;;;;;;;11.27;68.87;94701.94;4995446;28;20294;-86
2021/05/16 02:11:17;;;;;;;1.20;0.70;;;;;;;11.33;68.03;94701.13;4995017;28;20211;-86
2021/05/16 02:13:43;;;;;;;1.70;0.70;;;;;;;11.21;69.04;94697.56;4993678;28;20227;-84
2021/05/16 02:16:11;;;;;;;0.60;0.60;;;;;;;11.19;68.94;94696.97;4993937;28;20242;-83
2021/05/16 02:18:37;;;;;;;0.70;0.67;;;;;;;11.18;69.12;94700.56;4994027;28;20224;-84
2021/05/16 02:21:05;;;;;;;1.10;0.90;;;;;;;11.24;67.90;94704.13;4993622;28;20567;-83
2021/05/16 02:23:31;;;;;;;0.70;0.70;;;;;;;11.24;68.19;94701.53;4993525;28;20207;-85
2021/05/16 02:25:57;;;;;;;0.70;0.70;;;;;;;11.25;68.39;94698.75;4993078;28;20223;-85
2021/05/16 02:28:23;;;;;;;0.80;0.73;;;;;;;11.18;68.24;94697.97;4993853;28;20278;-84
2021/05/16 02:30:51;;;;;;;1.00;0.90;;;;;;;11.10;68.64;94703.34;4993325;28;20250;-86
2021/05/16 02:33:17;;;;;;;1.60;0.60;;;;;;;11.05;68.21;94705.75;4993345;28;20234;-85
2021/05/16 02:35:43;;;;;;;1.13;0.70;;;;;;;11.05;68.23;94703.94;4992813;28;20196;-84
2021/05/16 02:38:11;;;;;;;1.03;0.63;;;;;;;11.03;67.89;94700.78;4992753;28;20207;-86
2021/05/16 02:40:37;;;;;;;0.60;0.60;;;;;;;11.04;68.11;94709.31;4992145;28;20762;-85
2021/05/16 02:43:03;;;;;;;0.80;0.67;;;;;;;11.07;67.75;94703.75;4993933;28;20204;-84
2021/05/16 02:45:29;;;;;;;1.03;0.70;;;;;;;11.12;67.77;94708.31;4994388;28;20683;-86
2021/05/16 02:47:56;;;;;;;1.17;0.80;;;;;;;11.13;66.96;94700.38;4994654;28;20210;-85
2021/05/16 02:50:22;;;;;;;1.40;0.80;;;;;;;11.10;66.95;94703.34;4995932;28;20220;-83
2021/05/16 02:52:48;;;;;;;1.47;0.60;;;;;;;11.10;66.87;94695.63;4994519;28;20234;-87
2021/05/16 02:55:14;;;;;;;2.53;0.90;;;;;;;11.02;68.28;94695.84;4995260;28;20203;-85
2021/05/16 02:57:40;;;;;;;0.77;0.77;;;;;;;11.03;67.21;94700.00;4993193;28;20204;-84
2021/05/16 03:00:07;;;;;;;3.37;0.80;;;;;;;11.07;66.93;94701.19;4993807;28;20290;-84
2021/05/16 03:02:33;;;;;;;2.10;0.83;;;;;;;11.13;66.84;94702.16;4992633;28;20203;-85
2021/05/16 03:05:00;;;;;;;1.20;0.90;;;;;;;11.14;66.45;94698.59;4992164;28;20207;-85
2021/05/16 03:07:26;;;;;;;1.13;0.70;;;;;;;11.11;66.48;94699.00;4992610;28;20215;-85
2021/05/16 03:09:52;;;;;;;1.00;0.77;;;;;;;11.12;66.34;94695.44;4992852;28;20730;-85
2021/05/16 03:12:18;;;;;;;1.33;0.90;;;;;;;11.16;66.48;94706.94;4995009;28;20235;-86
2021/05/16 03:14:44;;;;;;;2.17;1.00;;;;;;;11.17;66.72;94700.75;5003860;28;20251;-86
2021/05/16 03:17:10;;;;;;;1.37;0.70;;;;;;;11.16;67.01;94697.38;5001770;28;20283;-86
2021/05/16 03:19:36;;;;;;;2.10;1.03;;;;;;;11.13;66.44;94702.97;5005496;28;20662;-84
2021/05/16 03:22:03;;;;;;;1.63;0.90;;;;;;;11.19;66.17;94712.44;5002834;28;20264;-84
2021/05/16 03:24:29;;;;;;;1.20;1.00;;;;;;;11.16;66.25;94709.50;5001491;28;20200;-85
2021/05/16 03:26:55;;;;;;;1.37;0.80;;;;;;;11.19;66.10;94707.28;5003809;28;20196;-85
2021/05/16 03:29:21;;;;;;;0.90;0.80;;;;;;;11.19;66.36;94709.88;5001886;28;20274;-85
2021/05/16 03:31:48;;;;;;;2.47;1.00;;;;;;;11.23;66.90;94705.09;4999003;28;20530;-85
2021/05/16 03:34:14;;;;;;;0.90;0.70;;;;;;;11.29;66.21;94705.09;4996469;28;20211;-86
2021/05/16 03:36:40;;;;;;;1.13;0.70;;;;;;;11.32;65.87;94711.63;4996466;28;20188;-87
2021/05/16 03:39:08;;;;;;;0.70;0.70;;;;;;;11.35;66.02;94714.56;4995801;28;20238;-86
2021/05/16 03:41:34;;;;;;;1.43;1.00;;;;;;;11.39;66.41;94717.56;4995872;28;20204;-87
2021/05/16 03:44:00;;;;;;;1.27;0.80;;;;;;;11.45;66.49;94711.59;4995199;28;20200;-86
2021/05/16 03:46:26;;;;;;;1.97;0.80;;;;;;;11.41;67.49;94713.78;4995832;28;20223;-86
2021/05/16 03:48:52;;;;;;;0.83;0.70;;;;;;;11.37;67.97;94710.03;4994487;28;20641;-86
2021/05/16 03:51:18;;;;;;;1.40;0.70;;;;;;;11.32;68.64;94712.44;4996741;28;20211;-86
2021/05/16 03:53:44;;;;;;;1.23;0.90;;;;;;;11.24;70.52;94710.06;4999223;28;20236;-86
2021/05/16 03:56:11;;;;;;;1.30;0.87;;;;;;;11.36;68.26;94710.22;5000009;28;20203;-85
2021/05/16 03:58:37;;;;;;;1.30;0.90;;;;;;;11.39;67.72;94710.59;5000077;28;20238;-87
2021/05/16 04:01:04;;;;;;;2.63;0.83;;;;;;;11.45;66.77;94703.06;5000079;28;20823;-86
2021/05/16 04:03:30;;;;;;;1.47;0.70;;;;;;;11.50;66.73;94709.22;4999535;28;20203;-87
2021/05/16 04:05:56;;;;;;;0.80;0.80;;;;;;;11.59;66.70;94713.13;5000396;28;20199;-87
2021/05/16 04:08:22;;;;;;;1.03;0.70;;;;;;;11.62;66.66;94714.50;4999572;28;20270;-86
2021/05/16 04:10:47;;;;;;;1.27;0.83;;;;;;;11.57;65.70;94709.16;5000132;28;20227;-87
2021/05/16 04:13:14;;;;;;;1.73;0.73;;;;;;;11.66;65.54;94713.13;4999404;28;20216;-87
2021/05/16 04:15:40;;;;;;;1.57;0.73;;;;;;;11.69;65.60;94705.75;4999376;28;20204;-85
2021/05/16 04:18:07;;;;;;;1.47;0.90;;;;;;;11.74;65.26;94716.22;4999743;28;20326;-86
2021/05/16 04:20:33;;;;;;;1.20;0.90;;;;;;;11.64;64.76;94712.53;5001351;28;20203;-87
2021/05/16 04:23:00;;;;;;;1.23;0.90;;;;;;;11.68;65.04;94718.84;4999890;28;20218;-86
2021/05/16 04:25:27;;;;;;;2.07;0.90;;;;;;;11.58;65.34;94714.13;4999221;28;20274;-86
2021/05/16 04:27:54;;;;;;;2.07;0.83;;;;;;;11.55;65.31;94722.25;4999440;28;20187;-87
2021/05/16 04:30:21;;;;;;;1.60;1.03;;;;;;;11.57;65.37;94720.28;4999596;28;20219;-86
2021/05/16 04:32:47;;;;;;;1.87;1.00;;;;;;;11.61;65.87;94715.50;4999046;28;20191;-86
2021/05/16 04:35:13;;;;;;;1.30;0.80;;;;;;;11.63;65.77;94718.69;4999177;28;20203;-85
2021/05/16 04:37:40;;;;;;;1.30;0.70;;;;;;;11.70;65.06;94722.81;4999477;28;20732;-87
2021/05/16 04:40:07;;;;;;;2.47;0.80;;;;;;;11.75;65.54;94720.41;4999378;28;20657;-86
2021/05/16 04:42:32;;;;;;;2.57;1.10;;;;;;;11.80;65.16;94717.25;4999021;28;20214;-86
2021/05/16 04:44:59;;;;;;;1.80;0.90;;;;;;;11.87;65.30;94717.22;4998712;28;20290;-87
2021/05/16 04:47:25;;;;;;;1.97;0.90;;;;;;;11.91;65.27;94715.81;4999658;28;20574;-86
2021/05/16 04:49:52;;;;;;;1.47;0.80;;;;;;;11.94;65.04;94716.19;5000474;28;20215;-86
2021/05/16 04:52:20;;;;;;;1.73;0.97;;;;;;;11.94;64.82;94716.19;4999498;28;20207;-86
2021/05/16 04:54:46;;;;;;;2.13;1.20;;;;;;;11.89;66.23;94717.81;4993785;28;20215;-87
2021/05/16 04:57:12;;;;;;;2.70;0.90;;;;;;;11.94;65.03;94720.53;4997961;28;20208;-87
2021/05/16 04:59:38;;;;;;;1.03;0.83;;;;;;;12.01;65.93;94719.53;4996738;28;20754;-86
2021/05/16 05:02:07;;;;;;;1.07;0.80;;;;;;;12.09;65.30;94716.72;4997084;28;20208;-86
2021/05/16 05:04:36;;;;;;;3.47;1.03;;;;;;;12.09;64.61;94729.63;4998203;28;20206;-86
2021/05/16 05:07:04;;;;;;;1.93;1.13;;;;;;;12.17;64.93;94725.19;4997598;28;20195;-86
2021/05/16 05:09:30;;;;;;;1.97;1.00;;;;;;;12.16;64.67;94727.00;4997828;28;20238;-84
2021/05/16 05:11:56;;;;;;;1.57;1.03;;;;;;;12.25;64.65;94724.97;4995476;28;20211;-85
2021/05/16 05:14:22;;;;;;;1.27;0.90;;;;;;;12.29;64.62;94728.72;4983574;28;20234;-85
2021/05/16 05:16:48;;;;;;;2.13;1.20;;;;;;;12.29;63.87;94732.09;4997273;28;20334;-86
2021/05/16 05:19:14;;;;;;;2.20;1.03;;;;;;;12.31;64.17;94731.88;4996305;28;20315;-86
2021/05/16 05:21:41;;;;;;;1.37;1.07;;;;;;;12.24;63.96;94721.59;4996026;28;20202;-85
2021/05/16 05:24:08;;;;;;;5.40;1.13;;;;;;;12.32;64.53;94725.69;4996784;28;20891;-86
2021/05/16 05:26:34;;;;;;;1.37;1.00;;;;;;;12.40;64.67;94715.94;4995883;28;20648;-86
2021/05/16 05:29:00;;;;;;;2.37;1.10;;;;;;;12.50;64.13;94712.91;4996043;28;20336;-86
2021/05/16 05:31:26;;;;;;;2.33;1.00;;;;;;;12.52;63.58;94716.03;4996821;28;20286;-86
2021/05/16 05:33:52;;;;;;;1.87;0.93;;;;;;;12.61;63.74;94714.00;4996135;28;20564;-86
2021/05/16 05:36:20;;;;;;;5.60;1.40;;;;;;;12.64;63.13;94711.00;4997329;28;20208;-86
2021/05/16 05:38:47;;;;;;;2.07;1.20;;;;;;;12.62;63.09;94713.78;4997035;28;20211;-85
2021/05/16 05:41:13;;;;;;;4.73;1.37;;;;;;;12.59;62.98;94719.38;4994994;28;20203;-86
2021/05/16 05:43:39;;;;;;;2.70;1.30;;;;;;;12.52;63.64;94718.63;4992553;28;20203;-86
2021/05/16 05:46:06;;;;;;;2.80;1.10;;;;;;;12.61;63.58;94732.06;4992374;28;20195;-86
2021/05/16 05:48:32;;;;;;;14.43;10.10;;;;;;;12.66;63.34;94719.34;4992850;28;20286;-86
2021/05/16 05:50:58;;;;;;;5.53;4.10;;;;;;;12.73;63.61;94726.00;4990864;28;20887;-86
2021/05/16 05:53:24;;;;;;;4.37;1.87;;;;;;;12.78;62.97;94727.97;5003339;28;20247;-85
2021/05/16 05:55:51;;;;;;;2.87;1.23;;;;;;;12.83;63.25;94719.59;4998420;28;20666;-87
2021/05/16 05:58:17;;;;;;;2.77;1.27;;;;;;;12.83;64.12;94729.94;5010609;28;20232;-86
2021/05/16 06:00:43;;;;;;;2.20;1.30;;;;;;;12.79;64.95;94725.19;4994959;28;20234;-87
2021/05/16 06:03:09;;;;;;;3.67;1.33;;;;;;;12.90;64.17;94728.84;5004211;28;20206;-87
2021/05/16 06:05:35;;;;;;;4.50;1.20;;;;;;;12.94;63.67;94740.34;4996381;28;20729;-87
2021/05/16 06:08:02;;;;;;;2.37;1.20;;;;;;;13.01;63.47;94730.75;4993273;28;20206;-86
2021/05/16 06:10:28;;;;;;;12.63;11.37;;;;;;;13.12;63.36;94727.47;4995545;28;20294;-86
2021/05/16 06:12:55;;;;;;;5.20;2.93;;;;;;;13.10;62.85;94723.50;4998958;28;20203;-86
2021/05/16 06:15:22;;;;;;;3.37;1.50;;;;;;;13.11;63.08;94717.34;4992754;28;20203;-86
2021/05/16 06:17:48;;;;;;;7.80;5.40;;;;;;;13.13;63.22;94730.84;4992097;28;20290;-87
2021/05/16 06:20:15;;;;;;;4.73;1.90;;;;;;;13.00;63.48;94728.41;4993227;28;20773;-86
2021/05/16 06:22:41;;;;;;;2.77;1.00;;;;;;;12.99;63.42;94734.56;4994353;28;20200;-86
2021/05/16 06:25:07;;;;;;;3.30;1.17;;;;;;;12.99;64.06;94730.19;5002603;28;20307;-87
2021/05/16 06:27:33;;;;;;;3.30;1.47;;;;;;;13.01;63.75;94732.56;5013936;28;20209;-86
2021/05/16 06:30:00;;;;;;;2.20;1.20;;;;;;;13.07;63.47;94737.69;5000852;28;20211;-86
2021/05/16 06:32:27;;;;;;;7.43;1.53;;;;;;;13.17;63.49;94739.00;5014653;28;20217;-87
2021/05/16 06:34:53;;;;;;;2.50;1.40;;;;;;;13.28;63.05;94730.53;5012879;28;20219;-87
2021/05/16 06:37:19;;;;;;;3.60;1.30;;;;;;;13.28;61.96;94735.69;5016814;28;20230;-87
2021/05/16 06:39:45;;;;;;;2.27;1.30;;;;;;;13.27;62.39;94741.91;5013117;28;20632;-86
2021/05/16 06:42:11;;;;;;;3.33;1.30;;;;;;;13.29;61.84;94732.91;5011128;28;20203;-86
2021/05/16 06:44:37;;;;;;;6.00;2.60;;;;;;;13.28;62.18;94736.50;5010694;28;20211;-85
2021/05/16 06:47:03;;;;;;;6.63;5.27;;;;;;;13.30;62.10;94737.06;5010986;28;20625;-87
2021/05/16 06:49:29;;;;;;;3.90;2.00;;;;;;;13.35;62.03;94739.03;5010914;28;20229;-86
2021/05/16 06:52:10;;;;;;;3.30;1.37;;;;;;;13.43;61.36;94743.94;5006160;28;20678;-86
2021/05/16 06:54:36;;;;;;;1.50;1.03;;;;;;;13.51;61.61;94742.84;4987434;28;20238;-87
2021/05/16 06:57:02;;;;;;;3.07;1.20;;;;;;;13.45;62.57;94747.88;4990892;28;20918;-87
2021/05/16 06:59:28;;;;;;;2.70;1.20;;;;;;;13.48;62.09;94738.88;4991370;28;20246;-87
2021/05/16 07:01:54;;;;;;;4.80;1.37;;;;;;;13.52;61.47;94741.84;4990324;28;20254;-87
2021/05/16 07:04:21;;;;;;;3.63;1.43;;;;;;;13.62;59.84;94739.56;4989742;28;20208;-86
2021/05/16 07:06:47;;;;;;;2.10;1.40;;;;;;;13.67;59.78;94732.72;4990245;28;20207;-86
2021/05/16 07:09:13;;;;;;;3.93;1.20;;;;;;;13.65;59.56;94739.13;4990634;28;20223;-86
2021/05/16 07:11:39;;;;;;;2.77;1.20;;;;;;;13.69;59.53;94737.66;4990115;28;20909;-86
2021/05/16 07:14:08;;;;;;;1.63;1.00;;;;;;;13.86;59.64;94730.91;4990701;28;20227;-87
2021/05/16 07:16:56;;;;;;;5.80;1.30;;;;;;;13.83;58.07;94729.56;4991603;28;20210;-86
2021/05/16 07:19:34;;;;;;;2.20;1.33;;;;;;;13.98;58.61;94729.19;4987637;23;20247;-87
2021/05/16 07:22:14;;;;;;;3.50;1.30;;;;;;;14.07;58.63;94724.47;4970891;28;20204;-87
2021/05/16 07:24:51;;;;;;;3.40;1.30;;;;;;;14.04;57.47;94723.13;4972110;28;20294;-87
2021/05/16 07:27:18;;;;;;;5.60;1.30;;;;;;;14.00;58.30;94721.19;4989243;28;20206;-87
2021/05/16 07:32:33;;;;;;;4.70;1.40;;;;;;;13.99;58.04;94723.00;4983209;28;20207;-86
2021/05/16 07:35:03;;;;;;;4.27;1.20;;;;;;;14.00;58.14;94726.38;5009268;28;20226;-84
2021/05/16 07:37:32;;;;;;;1.03;0.90;;;;;;;14.06;57.83;94725.47;5011134;28;20674;-85
2021/05/16 07:40:02;;;;;;;2.67;1.30;;;;;;;14.19;58.10;94722.75;5009830;28;20234;-86
2021/05/16 07:42:28;;;;;;;3.50;1.30;;;;;;;14.38;57.20;94715.72;5010014;28;20207;-87
2021/05/16 07:44:54;;;;;;;4.00;1.93;;;;;;;14.50;57.56;94729.50;5009917;28;20256;-86
2021/05/16 07:47:20;;;;;;;3.90;1.70;;;;;;;14.70;56.63;94714.44;5001754;28;20198;-85
2021/05/16 07:49:46;;;;;;;2.63;1.47;;;;;;;14.91;55.98;94705.34;4991781;28;20808;-85
2021/05/16 07:52:13;;;;;;;5.03;1.53;;;;;;;15.03;55.45;94726.88;4997746;28;20209;-85
2021/05/16 07:54:39;;;;;;;2.93;1.13;;;;;;;15.08;54.69;94708.84;5009970;28;20218;-86
2021/05/16 07:57:14;;;;;;;4.17;1.27;;;;;;;15.02;53.62;94711.53;5010542;28;20571;-86
2021/05/16 07:59:46;;;;;;;3.23;1.23;;;;;;;14.99;53.85;94712.00;5010478;28;20618;-86
2021/05/16 08:02:20;;;;;;;3.93;2.10;;;;;;;14.91;53.95;94707.94;4998031;28;20187;-86
2021/05/16 08:04:50;;;;;;;4.00;2.10;;;;;;;15.10;55.05;94713.81;4996447;28;20227;-87
2021/05/16 08:07:43;;;;;;;2.93;1.50;;;;;;;15.06;54.29;94712.69;4999503;28;20203;-87
2021/05/16 08:10:13;;;;;;;3.23;1.10;;;;;;;15.25;54.68;94710.75;4989611;28;20219;-87
2021/05/16 08:12:39;;;;;;;2.23;1.17;;;;;;;15.40;53.96;94703.28;5010088;28;20629;-85
2021/05/16 08:15:28;;;;;;;3.43;1.40;;;;;;;15.41;54.09;94703.06;5008023;28;20666;-87
2021/05/16 08:18:26;;;;;;;2.87;1.10;;;;;;;15.71;53.20;94702.16;5010421;28;20203;-88
2021/05/16 08:23:40;;;;;;;2.63;1.03;;;;;;;16.20;48.90;94700.72;4998695;28;20195;-85
2021/05/16 08:26:09;;;;;;;3.33;1.20;;;;;;;16.17;48.99;94708.97;4993608;28;20601;-86
2021/05/16 08:28:38;;;;;;;3.03;1.40;;;;;;;16.17;49.52;94703.78;4991339;28;20737;-86
2021/05/16 08:33:44;;;;;;;1.90;1.00;;;;;;;15.83;48.13;94708.09;5008019;28;20736;-87
2021/05/16 08:38:52;;;;;;;2.80;1.20;;;;;;;15.57;49.23;94706.81;4993108;28;20231;-86
2021/05/16 08:41:21;;;;;;;3.03;1.30;;;;;;;15.67;48.60;94703.63;4997545;28;20207;-86
2021/05/16 08:43:50;;;;;;;2.35;1.13;;;;;;;15.60;49.56;94700.34;5009028;28;20202;-84
2021/05/16 08:46:21;;;;;;;2.35;0.90;;;;;;;15.82;49.53;94712.50;4997723;28;20199;-86
2021/05/16 08:48:56;;;;;;;2.30;1.00;;;;;;;15.83;50.29;94713.28;4994222;28;20286;-85
2021/05/16 08:51:37;;;;;;;4.85;1.75;;;;;;;15.69;49.75;94717.94;4994529;28;20218;-86
2021/05/16 08:54:14;;;;;;;2.30;1.23;;;;;;;15.88;48.98;94710.78;5007710;28;20246;-86
2021/05/16 08:59:21;;;;;;;2.53;1.13;;;;;;;16.19;48.01;94704.34;4995122;28;20227;-86
2021/05/16 09:01:48;;;;;;;1.83;1.02;;;;;;;16.19;49.04;94701.75;4993174;28;20201;-87
2021/05/16 09:04:21;;;;;;;4.32;1.42;;;;;;;16.30;47.82;94705.34;5001461;28;20203;-87
2021/05/16 09:06:52;;;;;;;2.22;1.00;;;;;;;16.76;47.49;94697.28;5003296;28;20204;-82
2021/05/16 09:09:26;;;;;;;2.70;1.00;;;;;;;16.93;47.02;94702.50;5012314;28;20222;-87
2021/05/16 09:11:54;;;;;;;3.20;1.30;;;;;;;16.66;46.92;94691.94;5002967;28;20222;-84
2021/05/16 09:14:38;;;;;;;3.17;1.10;;;;;;;16.42;48.04;94698.25;5004989;28;20230;-84
2021/05/16 09:17:22;;;;;;;3.42;1.33;;;;;;;16.51;49.17;94699.47;5005161;28;20241;-85
2021/05/16 09:19:51;;;;;;;3.83;1.63;;;;;;;16.76;48.32;94693.91;5012323;28;20280;-86
2021/05/16 09:22:30;;;;;;;10.98;7.65;;;;;;;17.24;49.13;94709.72;5002590;28;20210;-87
2021/05/16 09:25:09;;;;;;;3.15;1.40;;;;;;;17.51;46.56;94696.03;4991875;28;20227;-85
2021/05/16 09:27:36;;;;;;;2.67;1.20;;;;;;;17.76;48.80;94698.16;5002807;28;20195;-86
2021/05/16 09:30:23;;;;;;;4.53;1.55;;;;;;;18.01;45.12;94693.25;4998857;28;20231;-87
2021/05/16 09:32:51;;;;;;;2.00;1.00;;;;;;;17.52;46.28;94697.59;4999149;28;20199;-85
2021/05/16 09:35:18;;;;;;;3.30;1.10;;;;;;;17.25;46.19;94700.09;4992022;28;20255;-87
2021/05/16 09:37:58;;;;;;;2.60;0.90;;;;;;;16.83;45.46;94692.72;5010097;28;20203;-86
2021/05/16 09:40:26;;;;;;;3.65;1.08;;;;;;;16.75;45.49;94687.91;5002238;28;20223;-85
2021/05/16 09:43:16;;;;;;;1.92;1.10;;;;;;;17.04;44.83;94693.03;5008615;28;20199;-87
2021/05/16 09:45:52;;;;;;;2.35;1.20;;;;;;;17.25;44.12;94687.88;4992212;28;20282;-86
2021/05/16 09:48:28;;;;;;;2.75;1.30;;;;;;;17.02;43.54;94690.66;4995095;28;20194;-87
2021/05/16 09:51:15;;;;;;;1.90;1.02;;;;;;;16.82;46.00;94693.75;5000633;28;20203;-86
2021/05/16 09:53:56;;;;;;;4.60;1.35;;;;;;;16.75;46.20;94684.53;5009850;28;20227;-85
2021/05/16 09:56:25;;;;;;;7.78;6.75;;;;;;;16.50;46.70;94685.69;5011453;28;20194;-85
2021/05/16 09:58:52;;;;;;;3.83;1.55;;;;;;;16.31;46.56;94686.13;5005342;28;20216;-85
2021/05/16 10:01:19;;;;;;;2.22;1.15;;;;;;;16.92;45.72;94675.72;4992035;28;20192;-86
2021/05/16 10:03:48;;;;;;;4.80;1.45;;;;;;;17.55;44.77;94666.66;4996217;28;20195;-85
2021/05/16 10:06:14;;;;;;;2.22;1.20;;;;;;;18.17;44.22;94661.13;5011620;28;20226;-87
2021/05/16 10:08:42;;;;;;;3.65;1.90;;;;;;;18.63;44.12;94659.75;4999268;28;20594;-87
2021/05/16 10:11:08;;;;;;;4.72;1.30;;;;;;;18.72;43.82;94662.66;5010767;28;20233;-87
2021/05/16 10:13:39;;;;;;;5.40;1.42;;;;;;;18.44;41.66;94661.13;5008239;28;20219;-87
2021/05/16 10:16:10;;;;;;;2.38;1.17;;;;;;;18.47;40.01;94662.44;4991972;28;20210;-85
2021/05/16 10:18:37;;;;;;;2.75;1.23;;;;;;;18.82;40.95;94652.31;4994234;28;20274;-86
2021/05/16 10:21:06;;;;;;;1.75;1.10;;;;;;;18.46;41.79;94650.44;5007277;28;20258;-86
2021/05/16 10:23:35;;;;;;;3.90;1.15;;;;;;;18.45;42.91;94641.84;4991669;28;20204;-85
2021/05/16 10:26:23;;;;;;;2.42;1.20;;;;;;;18.07;42.00;94632.38;5010391;28;20801;-84
2021/05/16 10:29:04;;;;;;;10.18;8.93;;;;;;;18.56;41.85;94629.66;5008395;28;20612;-87
2021/05/16 10:31:41;;;;;;;5.00;3.70;;;;;;;18.75;41.18;94630.09;4992930;28;20199;-86
2021/05/16 10:34:39;;;;;;;2.10;1.40;;;;;;;18.84;41.01;94631.19;4990195;28;20804;-86
2021/05/16 10:37:05;;;;;;;3.58;1.40;;;;;;;18.62;40.50;94626.09;4998124;28;20213;-87
2021/05/16 10:39:51;;;;;;;2.75;1.17;;;;;;;18.45;40.35;94625.41;5010880;28;20617;-85
2021/05/16 10:42:18;;;;;;;2.70;1.20;;;;;;;18.84;39.34;94621.56;5009736;28;20269;-86
2021/05/16 10:45:02;;;;;;;1.85;1.10;;;;;;;18.49;40.01;94626.47;5010524;28;20210;-85
2021/05/16 10:47:48;;;;;;;1.95;1.10;;;;;;;17.90;40.37;94629.06;4999446;28;20259;-86
2021/05/16 10:50:35;;;;;;;1.88;1.00;;;;;;;17.82;40.90;94617.28;4991241;28;20662;-85
2021/05/16 10:53:04;;;;;;;1.80;1.05;;;;;;;18.44;40.73;94611.59;4993603;28;20210;-84
2021/05/16 10:55:32;;;;;;;2.58;1.20;;;;;;;18.37;39.66;94600.56;5001048;28;20934;-86
2021/05/16 10:57:58;;;;;;;4.75;1.60;;;;;;;18.46;40.59;94591.28;4995170;28;20862;-86
2021/05/16 11:00:29;;;;;;;2.88;2.15;;;;;;;18.23;40.00;94581.97;5010480;28;20234;-85
2021/05/16 11:03:06;;;;;;;2.30;1.17;;;;;;;18.03;40.79;94584.41;4997181;28;20203;-86
2021/05/16 11:05:55;;;;;;;2.95;1.05;;;;;;;18.09;41.02;94586.00;4990311;28;20213;-84
2021/05/16 11:09:03;;;;;;;2.00;1.40;;;;;;;18.27;41.10;94575.25;4997795;28;20203;-85
2021/05/16 11:11:32;;;;;;;2.80;1.13;;;;;;;18.42;40.05;94579.00;4931425;29;20205;-85
2021/05/16 11:13:59;;;;;;;1.80;1.30;;;;;;;18.25;40.46;94586.94;4929620;29;20216;-86
2021/05/16 11:16:25;;;;;;;1.20;0.88;;;;;;;18.15;39.47;94571.22;4973452;28;20199;-84
2021/05/16 11:18:52;;;;;;;2.75;0.93;;;;;;;18.10;38.79;94568.56;5001553;28;20210;-85
2021/05/16 11:21:18;;;;;;;2.20;1.00;;;;;;;17.81;38.97;94565.44;5005581;28;20202;-85
2021/05/16 11:23:48;;;;;;;2.75;1.00;;;;;;;17.81;40.19;94549.81;4989983;28;20200;-85
2021/05/16 11:26:16;;;;;;;2.58;1.10;;;;;;;18.13;38.65;94557.63;4990710;28;20355;-85
2021/05/16 11:28:45;;;;;;;1.33;1.00;;;;;;;18.50;38.77;94568.09;5008209;28;20222;-86
2021/05/16 11:31:14;;;;;;;2.13;1.00;;;;;;;18.42;38.02;94563.34;5010668;28;20206;-84
2021/05/16 11:33:42;;;;;;;1.60;1.00;;;;;;;18.43;37.98;94557.09;4991516;28;20223;-86
2021/05/16 11:36:10;;;;;;;3.13;0.90;;;;;;;18.30;38.16;94563.50;4993221;28;20717;-86
2021/05/16 11:38:39;;;;;;;3.42;1.20;;;;;;;18.47;37.49;94551.13;5010545;28;20226;-84
2021/05/16 11:41:05;;;;;;;4.97;2.17;;;;;;;18.37;38.61;94553.66;5008620;28;20227;-86
2021/05/16 11:43:33;;;;;;;1.10;1.00;;;;;;;18.04;38.42;94544.31;5008255;28;20199;-86
2021/05/16 11:46:01;;;;;;;1.80;1.27;;;;;;;18.26;38.16;94539.78;5009441;28;20207;-85
2021/05/16 11:48:33;;;;;;;3.00;1.10;;;;;;;18.74;38.24;94538.03;4994773;28;20195;-87
2021/05/16 11:51:04;;;;;;;1.20;0.90;;;;;;;18.85;37.41;94531.84;4996920;28;20313;-85
2021/05/16 11:53:30;;;;;;;3.42;2.20;;;;;;;19.27;37.57;94533.56;4991909;28;20196;-86
2021/05/16 11:56:02;;;;;;;1.60;1.00;;;;;;;19.47;38.07;94535.44;4996377;28;20199;-86